Paragonah, Utah
Current Conditions -  °F | °C
As of 7:53 PM on Friday 21 Nov 2014 (Local Time) from KCDC Reporting Station
Clear Clear  
Wind Chill:   Ceiling: Unl
Heat Index:   Visibility: 10mi
Dew Point: -4°   Wind: 10mph
Humidity: 53%   Direction: 140°SE
Pressure: 30.04"   Gusts: NA
Location:  37.89°N, 112.78°W
Report Text: KCDC 220253Z AUTO 14009KT 10SM CLR 05/M04 A3004 RMK AO2 SLP174 T00501039 51013
Loading
Personal Weather Stations






























Interactive Weather Map New forecast layout! Learn more

10-Day Weather Forecast

Advertisements
Track Severe Weather on mobile